Time,TemperatureF,DewpointF,PressureIn,WindDirection,WindDirectionDegrees,WindSpeedMPH,WindSpeedGustMPH,Humidity,HourlyPrecipIn,Conditions,Clouds,dailyrainin,SoftwareType,DateUTC
2013-08-22 00:01:00,71.5,71.5,30.15,South,184,0.0,0.0,100,0.00,,SCT,0.00,VWS V14.01,2013-08-22 04:01:00,
2013-08-22 00:06:00,71.5,71.5,30.15,South,184,0.0,0.0,100,0.00,,SCT,0.00,VWS V14.01,2013-08-22 04:06:00,
2013-08-22 00:11:00,71.3,71.3,30.15,South,184,0.0,0.0,100,0.00,,SCT,0.00,VWS V14.01,2013-08-22 04:11:00,
2013-08-22 00:16:00,71.3,71.3,30.15,South,184,0.0,0.0,100,0.00,,SCT,0.00,VWS V14.01,2013-08-22 04:16:00,
2013-08-22 00:21:00,71.3,71.3,30.15,South,184,0.0,0.0,100,0.00,,SCT,0.00,VWS V14.01,2013-08-22 04:21:00,
2013-08-22 00:26:00,71.5,71.5,30.15,South,184,0.0,0.0,100,0.00,,SCT,0.00,VWS V14.01,2013-08-22 04:26:00,
2013-08-22 00:31:00,71.7,71.7,30.15,South,184,0.0,0.0,100,0.00,,SCT,0.00,VWS V14.01,2013-08-22 04:31:00,
2013-08-22 00:36:00,71.7,71.7,30.15,South,184,0.0,0.0,100,0.00,,SCT,0.00,VWS V14.01,2013-08-22 04:36:00,
2013-08-22 00:41:00,71.5,71.5,30.15,South,184,0.0,0.0,100,0.00,,SCT,0.00,VWS V14.01,2013-08-22 04:41:00,
2013-08-22 00:46:00,71.3,71.3,30.15,South,184,0.0,0.0,100,0.00,,SCT,0.00,VWS V14.01,2013-08-22 04:46:00,
2013-08-22 00:51:00,71.1,71.1,30.15,South,184,0.0,0.0,100,0.00,,SCT,0.00,VWS V14.01,2013-08-22 04:51:00,
2013-08-22 00:56:00,71.0,71.0,30.15,South,184,0.0,0.0,100,0.00,,SCT,0.00,VWS V14.01,2013-08-22 04:56:00,
2013-08-22 01:01:00,70.8,70.8,30.15,South,184,0.0,0.0,100,0.00,,SCT,0.00,VWS V14.01,2013-08-22 05:01:00,
2013-08-22 01:06:00,70.8,70.8,30.15,South,184,0.0,0.0,100,0.00,,SCT,0.00,VWS V14.01,2013-08-22 05:06:00,
2013-08-22 01:11:00,70.8,70.8,30.15,South,184,0.0,0.0,100,0.00,,SCT,0.00,VWS V14.01,2013-08-22 05:11:00,
2013-08-22 01:16:00,70.8,70.8,30.15,South,184,0.0,0.0,100,0.00,,SCT,0.00,VWS V14.01,2013-08-22 05:16:00,
2013-08-22 01:21:00,70.6,70.6,30.15,South,184,0.0,0.0,100,0.00,,SCT,0.00,VWS V14.01,2013-08-22 05:21:00,
2013-08-22 01:26:00,70.6,70.6,30.15,South,184,0.0,0.0,100,0.00,,SCT,0.00,VWS V14.01,2013-08-22 05:26:00,
2013-08-22 01:31:00,70.4,70.4,30.12,South,184,0.0,0.0,100,0.00,,SCT,0.00,VWS V14.01,2013-08-22 05:31:00,
2013-08-22 01:36:00,70.6,70.6,30.12,South,184,0.0,0.0,100,0.00,,SCT,0.00,VWS V14.01,2013-08-22 05:36:00,
2013-08-22 01:41:00,70.6,70.6,30.12,South,184,0.0,0.0,100,0.00,,SCT,0.00,VWS V14.01,2013-08-22 05:41:00,
2013-08-22 01:46:00,70.4,70.4,30.12,South,184,0.0,0.0,100,0.00,,SCT,0.00,VWS V14.01,2013-08-22 05:46:00,
2013-08-22 01:51:00,70.6,70.6,30.12,SW,235,0.0,0.0,100,0.00,,SCT,0.00,VWS V14.01,2013-08-22 05:51:00,
2013-08-22 01:56:00,70.8,70.8,30.12,South,187,0.0,0.0,100,0.00,,SCT,0.00,VWS V14.01,2013-08-22 05:56:00,
2013-08-22 02:00:00,70.8,70.8,30.12,South,187,0.0,0.0,100,0.00,,SCT,0.00,VWS V14.01,2013-08-22 06:00:00,
2013-08-22 02:05:00,70.6,70.6,30.12,South,187,0.0,0.0,100,0.00,,SCT,0.00,VWS V14.01,2013-08-22 06:05:00,
2013-08-22 02:10:00,70.6,70.6,30.12,South,187,0.0,0.0,100,0.00,,SCT,0.00,VWS V14.01,2013-08-22 06:10:00,
2013-08-22 02:15:00,70.4,70.4,30.12,South,187,0.0,0.0,100,0.00,,SCT,0.00,VWS V14.01,2013-08-22 06:15:00,
2013-08-22 02:20:00,70.4,70.4,30.12,SSW,196,0.0,0.0,100,0.00,,SCT,0.00,VWS V14.01,2013-08-22 06:20:00,
2013-08-22 02:25:00,70.6,70.6,30.12,SW,217,0.0,0.0,100,0.00,,SCT,0.00,VWS V14.01,2013-08-22 06:25:00,
2013-08-22 02:30:00,70.6,70.6,30.12,SW,217,0.0,0.0,100,0.00,,SCT,0.00,VWS V14.01,2013-08-22 06:30:00,
2013-08-22 02:35:00,70.6,70.6,30.12,SW,217,0.0,0.0,100,0.00,,SCT,0.00,VWS V14.01,2013-08-22 06:35:00,
2013-08-22 02:40:00,70.6,70.6,30.12,SW,217,0.0,0.0,100,0.00,,SCT,0.00,VWS V14.01,2013-08-22 06:40:00,
2013-08-22 02:45:00,70.4,70.4,30.12,SW,217,0.0,0.0,100,0.00,,SCT,0.00,VWS V14.01,2013-08-22 06:45:00,
2013-08-22 02:50:00,70.4,70.4,30.12,SW,217,0.0,0.0,100,0.00,,SCT,0.00,VWS V14.01,2013-08-22 06:50:00,
2013-08-22 02:55:00,70.4,70.4,30.12,SW,217,0.0,0.0,100,0.00,,SCT,0.00,VWS V14.01,2013-08-22 06:55:00,
2013-08-22 03:00:00,70.4,70.4,30.12,SW,217,0.0,0.0,100,0.00,,SCT,0.00,VWS V14.01,2013-08-22 07:00:00,
2013-08-22 03:05:00,70.4,70.4,30.12,SW,217,0.0,0.0,100,0.00,,SCT,0.00,VWS V14.01,2013-08-22 07:05:00,
2013-08-22 03:10:00,70.4,70.4,30.12,SW,217,0.0,0.0,100,0.00,,SCT,0.00,VWS V14.01,2013-08-22 07:10:00,
2013-08-22 03:15:00,70.4,70.4,30.12,SW,217,0.0,0.0,100,0.00,,SCT,0.00,VWS V14.01,2013-08-22 07:15:00,
2013-08-22 03:20:00,70.2,70.2,30.12,SW,217,0.0,0.0,100,0.00,,SCT,0.00,VWS V14.01,2013-08-22 07:20:00,
2013-08-22 03:25:00,70.2,70.2,30.12,SW,217,0.0,0.0,100,0.00,,SCT,0.00,VWS V14.01,2013-08-22 07:25:00,
2013-08-22 03:30:00,70.2,70.2,30.12,SW,217,0.0,0.0,100,0.00,,SCT,0.00,VWS V14.01,2013-08-22 07:30:00,
2013-08-22 03:35:00,70.4,70.4,30.12,SW,217,0.0,0.0,100,0.00,,SCT,0.00,VWS V14.01,2013-08-22 07:35:00,
2013-08-22 03:40:00,70.4,70.4,30.12,SW,217,0.0,0.0,100,0.00,,SCT,0.00,VWS V14.01,2013-08-22 07:40:00,
2013-08-22 03:45:00,70.4,70.4,30.12,SSW,206,0.0,0.0,100,0.00,,SCT,0.00,VWS V14.01,2013-08-22 07:45:00,
2013-08-22 03:50:00,70.2,70.2,30.12,SSW,206,0.0,0.0,100,0.00,,SCT,0.00,VWS V14.01,2013-08-22 07:50:00,
2013-08-22 03:55:00,70.2,70.2,30.12,South,174,0.0,0.0,100,0.00,,SCT,0.00,VWS V14.01,2013-08-22 07:55:00,
2013-08-22 04:00:00,70.2,70.2,30.12,South,174,0.0,0.0,100,0.00,,SCT,0.00,VWS V14.01,2013-08-22 08:00:00,
2013-08-22 04:05:00,70.1,70.1,30.12,South,174,0.0,0.0,100,0.00,,SCT,0.00,VWS V14.01,2013-08-22 08:05:00,
2013-08-22 04:10:00,69.7,69.7,30.12,South,174,0.0,0.0,100,0.00,,SCT,0.00,VWS V14.01,2013-08-22 08:10:00,
2013-08-22 04:15:00,69.7,69.7,30.12,South,174,0.0,0.0,100,0.00,,SCT,0.00,VWS V14.01,2013-08-22 08:15:00,
2013-08-22 04:20:00,69.7,69.7,30.12,South,174,0.0,0.0,100,0.00,,SCT,0.00,VWS V14.01,2013-08-22 08:20:00,
2013-08-22 04:25:00,69.7,69.7,30.12,South,174,0.0,0.0,100,0.00,,SCT,0.00,VWS V14.01,2013-08-22 08:25:00,
2013-08-22 04:30:00,69.9,69.9,30.12,South,174,0.0,0.0,100,0.00,,SCT,0.00,VWS V14.01,2013-08-22 08:30:00,
2013-08-22 04:35:00,70.1,70.1,30.12,South,174,0.0,0.0,100,0.00,,SCT,0.00,VWS V14.01,2013-08-22 08:35:00,
2013-08-22 04:40:00,70.1,70.1,30.12,South,174,0.0,0.0,100,0.00,,SCT,0.00,VWS V14.01,2013-08-22 08:40:00,
2013-08-22 04:45:00,70.1,70.1,30.12,South,174,0.0,0.0,100,0.00,,SCT,0.00,VWS V14.01,2013-08-22 08:45:00,
2013-08-22 04:50:00,70.2,70.2,30.12,South,174,0.0,0.0,100,0.00,,SCT,0.00,VWS V14.01,2013-08-22 08:50:00,
2013-08-22 04:55:00,70.2,70.2,30.12,South,174,0.0,0.0,100,0.00,,SCT,0.00,VWS V14.01,2013-08-22 08:55:00,
2013-08-22 05:00:00,70.2,70.2,30.12,South,174,0.0,0.0,100,0.00,,SCT,0.00,VWS V14.01,2013-08-22 09:00:00,
2013-08-22 05:05:00,70.2,70.2,30.12,South,174,0.0,0.0,100,0.00,,SCT,0.00,VWS V14.01,2013-08-22 09:05:00,
2013-08-22 05:10:00,70.2,70.2,30.12,South,174,0.0,0.0,100,0.00,,SCT,0.00,VWS V14.01,2013-08-22 09:10:00,
2013-08-22 05:15:00,70.2,70.2,30.12,South,174,0.0,0.0,100,0.00,,SCT,0.00,VWS V14.01,2013-08-22 09:15:00,
2013-08-22 05:20:00,70.2,70.2,30.12,South,174,0.0,0.0,100,0.00,,SCT,0.00,VWS V14.01,2013-08-22 09:20:00,
2013-08-22 05:25:00,70.2,70.2,30.12,South,174,0.0,0.0,100,0.00,,SCT,0.00,VWS V14.01,2013-08-22 09:25:00,
2013-08-22 05:30:00,70.2,70.2,30.12,South,174,0.0,0.0,100,0.00,,SCT,0.00,VWS V14.01,2013-08-22 09:30:00,
2013-08-22 05:35:00,70.2,70.2,30.12,South,174,0.0,0.0,100,0.00,,SCT,0.00,VWS V14.01,2013-08-22 09:35:00,
2013-08-22 05:40:00,70.4,70.4,30.12,South,174,0.0,0.0,100,0.00,,SCT,0.00,VWS V14.01,2013-08-22 09:40:00,
2013-08-22 05:45:00,70.4,70.4,30.12,South,174,0.0,0.0,100,0.00,,SCT,0.00,VWS V14.01,2013-08-22 09:45:00,
2013-08-22 05:50:00,70.4,70.4,30.12,South,174,0.0,0.0,100,0.00,,SCT,0.00,VWS V14.01,2013-08-22 09:50:00,
2013-08-22 05:55:00,70.4,70.4,30.12,South,174,0.0,0.0,100,0.00,,SCT,0.00,VWS V14.01,2013-08-22 09:55:00,
2013-08-22 06:00:00,70.2,70.2,30.12,South,174,0.0,0.0,100,0.00,,SCT,0.00,VWS V14.01,2013-08-22 10:00:00,
2013-08-22 06:05:00,70.2,70.2,30.12,South,174,0.0,0.0,100,0.00,,SCT,0.00,VWS V14.01,2013-08-22 10:05:00,
2013-08-22 06:10:00,70.2,70.2,30.12,South,174,0.0,0.0,100,0.00,,SCT,0.00,VWS V14.01,2013-08-22 10:10:00,
2013-08-22 06:15:00,70.1,70.1,30.12,South,174,0.0,0.0,100,0.00,,SCT,0.00,VWS V14.01,2013-08-22 10:15:00,
2013-08-22 06:20:00,69.9,69.9,30.12,South,174,0.0,0.0,100,0.00,,SCT,0.00,VWS V14.01,2013-08-22 10:20:00,
2013-08-22 06:25:00,69.7,69.7,30.12,South,174,0.0,0.0,100,0.00,,SCT,0.00,VWS V14.01,2013-08-22 10:25:00,
2013-08-22 06:30:00,69.5,69.5,30.12,South,174,0.0,0.0,100,0.00,,SCT,0.00,VWS V14.01,2013-08-22 10:30:00,
2013-08-22 06:35:00,69.5,69.5,30.12,South,174,0.0,0.0,100,0.00,,SCT,0.00,VWS V14.01,2013-08-22 10:35:00,
2013-08-22 06:40:00,69.5,69.5,30.12,South,174,0.0,0.0,100,0.00,,SCT,0.00,VWS V14.01,2013-08-22 10:40:00,
2013-08-22 06:45:00,69.5,69.5,30.12,South,174,0.0,0.0,100,0.00,,SCT,0.00,VWS V14.01,2013-08-22 10:45:00,
2013-08-22 06:50:00,69.7,69.7,30.12,South,174,0.0,0.0,100,0.00,,SCT,0.00,VWS V14.01,2013-08-22 10:50:00,
2013-08-22 08:27:00,73.3,73.3,30.15,South,174,0.0,0.0,100,0.00,,SCT,0.00,VWS V14.01,2013-08-22 12:27:00,
2013-08-22 08:32:00,73.8,73.8,30.15,South,174,0.0,0.0,100,0.00,,SCT,0.00,VWS V14.01,2013-08-22 12:32:00,
2013-08-22 08:37:00,74.2,74.2,30.15,South,172,0.0,2.7,100,0.00,,SCT,0.00,VWS V14.01,2013-08-22 12:37:00,
2013-08-22 08:42:00,75.1,75.1,30.15,SW,234,0.0,2.7,100,0.00,,SCT,0.00,VWS V14.01,2013-08-22 12:42:00,
2013-08-22 08:47:00,75.8,75.8,30.15,West,280,0.0,3.1,100,0.00,,SCT,0.00,VWS V14.01,2013-08-22 12:47:00,
2013-08-22 08:52:00,76.0,76.0,30.15,WSW,248,0.0,0.0,100,0.00,,SCT,0.00,VWS V14.01,2013-08-22 12:52:00,
2013-08-22 08:57:00,76.5,76.6,30.15,SW,221,0.0,2.7,100,0.00,,SCT,0.00,VWS V14.01,2013-08-22 12:57:00,
2013-08-22 09:00:00,77.1,77.1,30.15,SW,221,0.0,0.0,100,0.00,,SCT,0.00,VWS V14.01,2013-08-22 13:00:00,
2013-08-22 09:05:00,77.3,77.3,30.15,SW,221,0.0,0.0,100,0.00,,SCT,0.00,VWS V14.01,2013-08-22 13:05:00,
2013-08-22 09:10:00,77.1,77.1,30.15,West,270,0.0,0.0,100,0.00,,SCT,0.00,VWS V14.01,2013-08-22 13:10:00,
2013-08-22 09:15:00,77.3,77.3,30.15,West,270,0.0,0.0,100,0.00,,SCT,0.00,VWS V14.01,2013-08-22 13:15:00,
2013-08-22 09:20:00,77.4,77.4,30.15,WSW,244,0.0,0.0,100,0.00,,SCT,0.00,VWS V14.01,2013-08-22 13:20:00,
2013-08-22 09:25:00,77.3,76.7,30.15,SSE,163,3.1,3.1,98,0.00,,SCT,0.00,VWS V14.01,2013-08-22 13:25:00,
2013-08-22 09:30:00,77.6,77.0,30.15,SW,234,0.0,0.0,98,0.00,,SCT,0.00,VWS V14.01,2013-08-22 13:30:00,
2013-08-22 09:35:00,78.2,76.6,30.15,SSW,210,0.0,0.0,95,0.00,,SCT,0.00,VWS V14.01,2013-08-22 13:35:00,
2013-08-22 09:40:00,78.7,76.5,30.15,WSW,241,3.1,3.6,93,0.00,,SCT,0.00,VWS V14.01,2013-08-22 13:40:00,
2013-08-22 09:45:00,78.7,74.8,30.15,WSW,250,2.7,3.1,88,0.00,,SCT,0.00,VWS V14.01,2013-08-22 13:45:00,
2013-08-22 09:50:00,79.1,75.2,30.15,WSW,250,0.0,0.0,88,0.00,,SCT,0.00,VWS V14.01,2013-08-22 13:50:00,
2013-08-22 09:55:00,79.4,74.5,30.15,SE,141,2.7,4.0,85,0.00,,SCT,0.00,VWS V14.01,2013-08-22 13:55:00,
2013-08-22 10:00:00,79.8,73.8,30.15,SSE,155,0.0,3.6,82,0.00,,SCT,0.00,VWS V14.01,2013-08-22 14:00:00,
2013-08-22 10:05:00,79.8,72.7,30.15,South,187,0.0,0.0,79,0.00,,SCT,0.00,VWS V14.01,2013-08-22 14:05:00,
2013-08-22 10:10:00,80.0,72.5,30.15,SW,228,0.0,0.0,78,0.00,,SCT,0.00,VWS V14.01,2013-08-22 14:10:00,
2013-08-22 10:15:00,80.3,72.5,30.15,SW,228,0.0,0.0,77,0.00,,SCT,0.00,VWS V14.01,2013-08-22 14:15:00,
2013-08-22 10:20:00,80.3,70.9,30.15,SSW,213,0.0,4.5,73,0.00,,SCT,0.00,VWS V14.01,2013-08-22 14:20:00,
2013-08-22 10:25:00,80.5,69.8,30.15,West,277,0.0,0.0,70,0.00,,SCT,0.00,VWS V14.01,2013-08-22 14:25:00,
2013-08-22 10:30:00,80.9,70.2,30.15,SW,221,0.0,0.0,70,0.00,,SCT,0.00,VWS V14.01,2013-08-22 14:30:00,
2013-08-22 10:35:00,81.0,69.5,30.15,SW,221,0.0,0.0,68,0.00,,SCT,0.00,VWS V14.01,2013-08-22 14:35:00,
2013-08-22 10:40:00,81.4,69.8,30.15,West,266,0.0,0.0,68,0.00,,SCT,0.00,VWS V14.01,2013-08-22 14:40:00,
2013-08-22 10:45:00,81.6,69.6,30.15,WSW,245,0.0,2.7,67,0.00,,SCT,0.00,VWS V14.01,2013-08-22 14:45:00,
2013-08-22 10:50:00,81.9,69.5,30.15,SW,236,0.0,0.0,66,0.00,,SCT,0.00,VWS V14.01,2013-08-22 14:50:00,
2013-08-22 10:55:00,82.3,69.8,30.15,WSW,238,3.1,3.1,66,0.00,,SCT,0.00,VWS V14.01,2013-08-22 14:55:00,
2013-08-22 11:00:00,82.3,68.9,30.15,WSW,252,0.0,3.6,64,0.00,,SCT,0.00,VWS V14.01,2013-08-22 15:00:00,
2013-08-22 11:05:00,82.3,68.5,30.15,ESE,114,0.0,4.5,63,0.00,,SCT,0.00,VWS V14.01,2013-08-22 15:05:00,
2013-08-22 11:10:00,82.7,69.3,30.15,SE,138,0.0,0.0,64,0.00,,SCT,0.00,VWS V14.01,2013-08-22 15:10:00,
2013-08-22 11:15:00,83.0,69.6,30.12,NNW,332,0.0,0.0,64,0.00,,SCT,0.00,VWS V14.01,2013-08-22 15:15:00,
2013-08-22 11:20:00,82.8,68.0,30.12,NE,41,0.0,2.7,61,0.00,,SCT,0.00,VWS V14.01,2013-08-22 15:20:00,
2013-08-22 11:25:00,83.2,69.3,30.12,ESE,112,0.0,3.6,63,0.00,,SCT,0.00,VWS V14.01,2013-08-22 15:25:00,
2013-08-22 11:30:00,83.4,68.5,30.12,SW,235,2.7,3.6,61,0.00,,SCT,0.00,VWS V14.01,2013-08-22 15:30:00,
2013-08-22 11:35:00,83.2,67.9,30.12,South,182,0.0,0.0,60,0.00,,SCT,0.00,VWS V14.01,2013-08-22 15:35:00,
2013-08-22 11:40:00,83.4,68.5,30.12,North,8,3.1,4.0,61,0.00,,SCT,0.00,VWS V14.01,2013-08-22 15:40:00,
2013-08-22 11:45:00,83.6,68.2,30.12,West,270,0.0,0.0,60,0.00,,SCT,0.00,VWS V14.01,2013-08-22 15:45:00,
2013-08-22 11:50:00,83.4,67.6,30.12,SW,215,0.0,3.1,59,0.00,,SCT,0.00,VWS V14.01,2013-08-22 15:50:00,
2013-08-22 11:54:00,83.6,68.2,30.12,SW,215,0.0,0.0,60,0.00,,SCT,0.00,VWS V14.01,2013-08-22 15:54:00,
2013-08-22 11:59:00,83.9,69.0,30.12,SSW,211,4.0,4.5,61,0.00,,SCT,0.00,VWS V14.01,2013-08-22 15:59:00,
2013-08-22 12:04:00,84.1,68.7,30.12,ESE,109,3.6,4.5,60,0.00,,SCT,0.00,VWS V14.01,2013-08-22 16:04:00,
2013-08-22 12:09:00,84.1,67.2,30.12,NE,54,0.0,2.7,57,0.00,,SCT,0.00,VWS V14.01,2013-08-22 16:09:00,
2013-08-22 12:14:00,84.8,67.9,30.12,NW,315,0.0,0.0,57,0.00,,SCT,0.00,VWS V14.01,2013-08-22 16:14:00,
2013-08-22 12:19:00,85.4,68.4,30.12,NE,48,3.1,3.1,57,0.00,,SCT,0.00,VWS V14.01,2013-08-22 16:19:00,
2013-08-22 12:24:00,85.2,67.7,30.12,North,7,0.0,0.0,56,0.00,,SCT,0.00,VWS V14.01,2013-08-22 16:24:00,
2013-08-22 12:29:00,85.4,67.9,30.12,ESE,109,0.0,0.0,56,0.00,,SCT,0.00,VWS V14.01,2013-08-22 16:29:00,
2013-08-22 12:34:00,85.0,67.6,30.12,West,279,0.0,0.0,56,0.00,,SCT,0.00,VWS V14.01,2013-08-22 16:34:00,
2013-08-22 12:39:00,84.8,67.4,30.12,SSE,161,0.0,4.5,56,0.00,,SCT,0.00,VWS V14.01,2013-08-22 16:39:00,
2013-08-22 12:44:00,84.8,67.4,30.09,South,189,0.0,3.1,56,0.00,,SCT,0.00,VWS V14.01,2013-08-22 16:44:00,
2013-08-22 12:49:00,85.0,67.0,30.09,ENE,69,0.0,0.0,55,0.00,,SCT,0.00,VWS V14.01,2013-08-22 16:49:00,
2013-08-22 12:54:00,85.2,66.7,30.09,NE,43,4.9,4.9,54,0.00,,SCT,0.00,VWS V14.01,2013-08-22 16:54:00,
2013-08-22 12:59:00,85.4,67.4,30.09,NNE,30,3.1,3.6,55,0.00,,SCT,0.00,VWS V14.01,2013-08-22 16:59:00,
2013-08-22 13:04:00,85.7,67.7,30.09,West,263,2.7,2.7,55,0.00,,SCT,0.00,VWS V14.01,2013-08-22 17:04:00,
2013-08-22 13:09:00,86.3,68.7,30.09,ENE,75,0.0,0.0,56,0.00,,SCT,0.00,VWS V14.01,2013-08-22 17:09:00,
2013-08-22 13:14:00,87.2,68.5,30.09,West,264,3.1,3.6,54,0.00,,SCT,0.00,VWS V14.01,2013-08-22 17:14:00,
2013-08-22 13:19:00,87.3,68.7,30.09,SW,234,0.0,2.7,54,0.00,,SCT,0.00,VWS V14.01,2013-08-22 17:19:00,
2013-08-22 13:24:00,87.3,69.7,30.09,SSW,212,0.0,0.0,56,0.00,,SCT,0.00,VWS V14.01,2013-08-22 17:24:00,
2013-08-22 13:29:00,87.2,69.6,30.09,SW,229,0.0,0.0,56,0.00,,SCT,0.00,VWS V14.01,2013-08-22 17:29:00,
2013-08-22 13:34:00,87.2,68.5,30.09,SE,135,0.0,0.0,54,0.00,,SCT,0.00,VWS V14.01,2013-08-22 17:34:00,
2013-08-22 13:39:00,87.3,68.7,30.09,ESE,113,0.0,0.0,54,0.00,,SCT,0.00,VWS V14.01,2013-08-22 17:39:00,
2013-08-22 13:44:00,86.8,68.2,30.09,NE,46,0.0,0.0,54,0.00,,SCT,0.00,VWS V14.01,2013-08-22 17:44:00,
2013-08-22 13:49:00,86.6,68.0,30.09,West,268,0.0,0.0,54,0.00,,SCT,0.00,VWS V14.01,2013-08-22 17:49:00,
2013-08-22 13:54:00,86.3,67.7,30.09,West,266,0.0,0.0,54,0.00,,SCT,0.00,VWS V14.01,2013-08-22 17:54:00,
2013-08-22 13:59:00,87.2,68.5,30.09,SSW,203,0.0,0.0,54,0.00,,SCT,0.00,VWS V14.01,2013-08-22 17:59:00,
2013-08-22 14:04:00,88.2,69.0,30.09,SSW,203,0.0,0.0,53,0.00,,SCT,0.00,VWS V14.01,2013-08-22 18:04:00,
2013-08-22 14:09:00,89.5,70.1,30.09,SSW,203,0.0,0.0,53,0.00,,SCT,0.00,VWS V14.01,2013-08-22 18:09:00,
2013-08-22 14:14:00,90.2,70.8,30.09,SSW,203,0.0,0.0,53,0.00,,SCT,0.00,VWS V14.01,2013-08-22 18:14:00,
2013-08-22 14:19:00,90.0,70.1,30.09,SSW,203,0.0,0.0,52,0.00,,SCT,0.00,VWS V14.01,2013-08-22 18:19:00,
2013-08-22 14:24:00,88.6,68.7,30.09,ESE,102,0.0,0.0,52,0.00,,SCT,0.00,VWS V14.01,2013-08-22 18:24:00,
2013-08-22 14:29:00,88.2,69.0,30.06,ESE,117,0.0,0.0,53,0.00,,SCT,0.00,VWS V14.01,2013-08-22 18:29:00,
2013-08-22 14:34:00,88.6,69.8,30.06,South,173,0.0,0.0,54,0.00,,SCT,0.00,VWS V14.01,2013-08-22 18:34:00,
2013-08-22 14:39:00,89.0,70.7,30.06,South,174,2.7,3.1,55,0.00,,SCT,0.00,VWS V14.01,2013-08-22 18:39:00,
2013-08-22 14:44:00,89.1,69.8,30.06,ESE,105,0.0,0.0,53,0.00,,SCT,0.00,VWS V14.01,2013-08-22 18:44:00,
2013-08-22 14:49:00,89.1,70.3,30.06,SSE,154,0.0,3.6,54,0.00,,SCT,0.00,VWS V14.01,2013-08-22 18:49:00,
2013-08-22 14:54:00,89.1,69.8,30.06,SW,223,0.0,0.0,53,0.00,,SCT,0.00,VWS V14.01,2013-08-22 18:54:00,
2013-08-22 14:59:00,89.5,69.6,30.06,SE,141,3.6,4.9,52,0.00,,SCT,0.00,VWS V14.01,2013-08-22 18:59:00,
2013-08-22 15:04:00,90.0,71.2,30.06,SW,229,0.0,4.0,54,0.00,,SCT,0.00,VWS V14.01,2013-08-22 19:04:00,
2013-08-22 15:09:00,90.2,70.8,30.06,SSW,195,0.0,3.6,53,0.00,,SCT,0.00,VWS V14.01,2013-08-22 19:09:00,
2013-08-22 15:14:00,90.0,69.5,30.06,SW,232,0.0,0.0,51,0.00,,SCT,0.00,VWS V14.01,2013-08-22 19:14:00,
2013-08-22 15:19:00,88.8,68.3,30.06,WNW,292,0.0,0.0,51,0.00,,SCT,0.00,VWS V14.01,2013-08-22 19:19:00,
2013-08-22 15:24:00,87.9,68.1,30.06,SSW,202,3.1,4.5,52,0.00,,SCT,0.00,VWS V14.01,2013-08-22 19:24:00,
2013-08-22 15:29:00,87.9,69.7,30.06,SW,236,0.0,2.7,55,0.00,,SCT,0.00,VWS V14.01,2013-08-22 19:29:00,
2013-08-22 15:34:00,88.2,70.0,30.06,SW,236,0.0,0.0,55,0.00,,SCT,0.00,VWS V14.01,2013-08-22 19:34:00,
2013-08-22 15:39:00,88.2,69.5,30.06,SSE,158,0.0,0.0,54,0.00,,SCT,0.00,VWS V14.01,2013-08-22 19:39:00,
2013-08-22 15:44:00,87.9,68.1,30.03,East,94,2.7,3.1,52,0.00,,SCT,0.00,VWS V14.01,2013-08-22 19:44:00,
2013-08-22 15:49:00,88.1,69.3,30.03,ESE,107,0.0,0.0,54,0.00,,SCT,0.00,VWS V14.01,2013-08-22 19:49:00,
2013-08-22 15:54:00,88.1,69.3,30.03,SE,136,0.0,0.0,54,0.00,,SCT,0.00,VWS V14.01,2013-08-22 19:54:00,
2013-08-22 15:59:00,88.1,68.8,30.03,SE,136,0.0,0.0,53,0.00,,SCT,0.00,VWS V14.01,2013-08-22 19:59:00,
2013-08-22 16:04:00,87.0,67.8,30.03,SE,135,0.0,0.0,53,0.00,,SCT,0.00,VWS V14.01,2013-08-22 20:04:00,
2013-08-22 16:09:00,86.8,68.2,30.03,WSW,247,4.0,4.0,54,0.00,,SCT,0.00,VWS V14.01,2013-08-22 20:09:00,
2013-08-22 16:14:00,86.8,68.2,30.03,WSW,252,3.1,3.1,54,0.00,,SCT,0.00,VWS V14.01,2013-08-22 20:14:00,
2013-08-22 16:19:00,86.8,68.2,30.03,West,266,2.7,3.6,54,0.00,,SCT,0.00,VWS V14.01,2013-08-22 20:19:00,
2013-08-22 16:24:00,86.8,68.2,30.03,WSW,249,2.7,4.5,54,0.00,,SCT,0.00,VWS V14.01,2013-08-22 20:24:00,
2013-08-22 16:29:00,86.8,67.6,30.03,West,274,0.0,2.7,53,0.00,,SCT,0.00,VWS V14.01,2013-08-22 20:29:00,
2013-08-22 16:34:00,86.8,67.6,30.03,West,259,0.0,0.0,53,0.00,,SCT,0.00,VWS V14.01,2013-08-22 20:34:00,
2013-08-22 16:39:00,86.8,67.6,30.03,West,259,0.0,0.0,53,0.00,,SCT,0.00,VWS V14.01,2013-08-22 20:39:00,
2013-08-22 16:44:00,86.8,67.6,30.03,West,281,0.0,0.0,53,0.00,,SCT,0.00,VWS V14.01,2013-08-22 20:44:00,
2013-08-22 16:49:00,86.8,67.6,30.03,North,5,2.7,4.0,53,0.00,,SCT,0.00,VWS V14.01,2013-08-22 20:49:00,
2013-08-22 16:54:00,86.8,67.6,30.03,ESE,119,0.0,3.1,53,0.00,,SCT,0.00,VWS V14.01,2013-08-22 20:54:00,
2013-08-22 16:59:00,86.8,67.6,30.03,ESE,119,0.0,0.0,53,0.00,,SCT,0.00,VWS V14.01,2013-08-22 20:59:00,
2013-08-22 17:04:00,82.3,63.5,30.03,ESE,119,0.0,0.0,53,0.00,,SCT,0.00,VWS V14.01,2013-08-22 21:04:00,
2013-08-22 17:09:00,81.8,63.0,30.03,ESE,119,0.0,0.0,53,0.00,,SCT,0.00,VWS V14.01,2013-08-22 21:09:00,
2013-08-22 17:13:00,81.4,62.6,30.03,ENE,63,0.0,0.0,53,0.00,,SCT,0.00,VWS V14.01,2013-08-22 21:13:00,
2013-08-22 17:18:00,81.0,62.3,30.03,ENE,57,0.0,0.0,53,0.00,,SCT,0.00,VWS V14.01,2013-08-22 21:18:00,
2013-08-22 17:23:00,80.9,62.2,30.03,West,273,0.0,0.0,53,0.00,,SCT,0.00,VWS V14.01,2013-08-22 21:23:00,
2013-08-22 17:28:00,80.9,68.9,30.03,SW,216,0.0,0.0,67,0.00,,SCT,0.00,VWS V14.01,2013-08-22 21:28:00,
2013-08-22 17:33:00,80.9,68.9,30.03,SW,216,0.0,0.0,67,0.00,,SCT,0.00,VWS V14.01,2013-08-22 21:33:00,
2013-08-22 17:38:00,80.9,68.9,30.03,SW,216,0.0,0.0,67,0.00,,SCT,0.00,VWS V14.01,2013-08-22 21:38:00,
2013-08-22 17:43:00,80.9,69.3,30.03,SW,216,0.0,0.0,68,0.00,,SCT,0.00,VWS V14.01,2013-08-22 21:43:00,
2013-08-22 17:48:00,80.7,68.7,30.03,SW,216,0.0,0.0,67,0.00,,SCT,0.00,VWS V14.01,2013-08-22 21:48:00,
2013-08-22 17:53:00,80.5,69.0,30.03,WSW,253,0.0,0.0,68,0.00,,SCT,0.00,VWS V14.01,2013-08-22 21:53:00,
2013-08-22 17:58:00,80.3,68.8,30.03,WSW,254,0.0,0.0,68,0.00,,SCT,0.00,VWS V14.01,2013-08-22 21:58:00,
2013-08-22 18:03:00,80.1,69.1,30.03,WSW,253,0.0,0.0,69,0.00,,SCT,0.00,VWS V14.01,2013-08-22 22:03:00,
2013-08-22 18:08:00,79.8,68.7,30.03,ESE,116,0.0,0.0,69,0.00,,SCT,0.00,VWS V14.01,2013-08-22 22:08:00,
2013-08-22 18:13:00,79.4,68.8,30.03,ESE,116,0.0,0.0,70,0.00,,SCT,0.00,VWS V14.01,2013-08-22 22:13:00,
2013-08-22 18:18:00,79.1,68.9,30.03,ESE,116,0.0,0.0,71,0.00,,SCT,0.00,VWS V14.01,2013-08-22 22:18:00,
2013-08-22 18:23:00,78.7,68.9,30.03,South,172,0.0,0.0,72,0.00,,SCT,0.00,VWS V14.01,2013-08-22 22:23:00,
2013-08-22 18:28:00,78.5,69.2,30.03,South,172,0.0,0.0,73,0.00,,SCT,0.00,VWS V14.01,2013-08-22 22:28:00,
2013-08-22 18:33:00,78.7,69.7,30.03,South,182,0.0,0.0,74,0.00,,SCT,0.00,VWS V14.01,2013-08-22 22:33:00,
2013-08-22 18:38:00,78.7,70.1,30.03,South,182,0.0,0.0,75,0.00,,SCT,0.00,VWS V14.01,2013-08-22 22:38:00,
2013-08-22 18:43:00,78.7,70.1,30.03,South,182,0.0,0.0,75,0.00,,SCT,0.00,VWS V14.01,2013-08-22 22:43:00,
2013-08-22 18:48:00,78.7,70.5,30.03,South,182,0.0,0.0,76,0.00,,SCT,0.00,VWS V14.01,2013-08-22 22:48:00,
2013-08-22 18:53:00,78.7,70.5,30.03,South,182,0.0,0.0,76,0.00,,SCT,0.00,VWS V14.01,2013-08-22 22:53:00,
2013-08-22 18:58:00,78.5,70.3,30.03,South,182,0.0,0.0,76,0.00,,SCT,0.00,VWS V14.01,2013-08-22 22:58:00,
2013-08-22 19:03:00,78.2,70.0,30.03,South,182,0.0,0.0,76,0.00,,SCT,0.00,VWS V14.01,2013-08-22 23:03:00,
2013-08-22 19:08:00,78.2,70.0,30.03,South,182,0.0,0.0,76,0.00,,SCT,0.00,VWS V14.01,2013-08-22 23:08:00,
2013-08-22 19:13:00,78.2,70.8,30.03,South,182,0.0,0.0,78,0.00,,SCT,0.00,VWS V14.01,2013-08-22 23:13:00,
2013-08-22 19:18:00,78.2,71.1,30.03,South,182,0.0,0.0,79,0.00,,SCT,0.00,VWS V14.01,2013-08-22 23:18:00,
2013-08-22 19:23:00,78.2,71.1,30.03,South,182,0.0,0.0,79,0.00,,SCT,0.00,VWS V14.01,2013-08-22 23:23:00,
2013-08-22 19:28:00,78.2,71.1,30.03,South,182,0.0,0.0,79,0.00,,SCT,0.00,VWS V14.01,2013-08-22 23:28:00,
2013-08-22 19:33:00,77.6,70.2,30.03,South,182,0.0,0.0,78,0.00,,SCT,0.00,VWS V14.01,2013-08-22 23:33:00,
2013-08-22 19:38:00,77.1,69.7,30.03,South,182,0.0,0.0,78,0.00,,SCT,0.00,VWS V14.01,2013-08-22 23:38:00,
2013-08-22 19:43:00,76.5,69.2,30.03,South,182,0.0,0.0,78,0.00,,SCT,0.00,VWS V14.01,2013-08-22 23:43:00,
2013-08-22 19:48:00,76.0,68.7,30.03,South,182,0.0,0.0,78,0.00,,SCT,0.00,VWS V14.01,2013-08-22 23:48:00,
2013-08-22 19:53:00,75.5,68.5,30.03,South,182,0.0,0.0,79,0.00,,SCT,0.00,VWS V14.01,2013-08-22 23:53:00,
2013-08-22 19:58:00,75.1,68.5,30.03,South,182,0.0,0.0,80,0.00,,SCT,0.00,VWS V14.01,2013-08-22 23:58:00,
2013-08-22 20:03:00,74.7,68.5,30.03,South,182,0.0,0.0,81,0.00,,SCT,0.00,VWS V14.01,2013-08-23 00:03:00,
2013-08-22 20:08:00,74.4,68.5,30.03,ENE,70,0.0,0.0,82,0.00,,SCT,0.00,VWS V14.01,2013-08-23 00:08:00,
2013-08-22 20:13:00,74.0,68.5,30.03,South,181,0.0,0.0,83,0.00,,SCT,0.00,VWS V14.01,2013-08-23 00:13:00,
2013-08-22 20:18:00,73.7,68.2,30.03,South,181,0.0,0.0,83,0.00,,SCT,0.00,VWS V14.01,2013-08-23 00:18:00,
2013-08-22 20:23:00,73.5,68.3,30.03,South,181,0.0,0.0,84,0.00,,SCT,0.00,VWS V14.01,2013-08-23 00:23:00,
2013-08-22 20:28:00,72.9,67.8,30.03,South,181,0.0,0.0,84,0.00,,SCT,0.00,VWS V14.01,2013-08-23 00:28:00,
2013-08-22 20:33:00,72.8,68.0,30.03,South,181,0.0,0.0,85,0.00,,SCT,0.00,VWS V14.01,2013-08-23 00:33:00,
2013-08-22 20:38:00,72.4,68.0,30.03,South,181,0.0,0.0,86,0.00,,SCT,0.00,VWS V14.01,2013-08-23 00:38:00,
2013-08-22 20:43:00,72.2,68.1,30.03,South,181,0.0,0.0,87,0.00,,SCT,0.00,VWS V14.01,2013-08-23 00:43:00,
2013-08-22 20:48:00,72.0,68.0,30.06,South,181,0.0,0.0,87,0.00,,SCT,0.00,VWS V14.01,2013-08-23 00:48:00,
2013-08-22 20:53:00,72.0,68.3,30.06,South,181,0.0,0.0,88,0.00,,SCT,0.00,VWS V14.01,2013-08-23 00:53:00,
2013-08-22 20:58:00,72.0,68.3,30.06,South,181,0.0,0.0,88,0.00,,SCT,0.00,VWS V14.01,2013-08-23 00:58:00,
2013-08-22 21:03:00,71.9,68.4,30.03,South,181,0.0,0.0,89,0.00,,SCT,0.00,VWS V14.01,2013-08-23 01:03:00,
2013-08-22 21:08:00,71.5,68.1,30.03,South,181,0.0,0.0,89,0.00,,SCT,0.00,VWS V14.01,2013-08-23 01:08:00,
2013-08-22 21:13:00,71.3,67.9,30.03,South,181,0.0,0.0,89,0.00,,SCT,0.00,VWS V14.01,2013-08-23 01:13:00,
2013-08-22 21:18:00,71.0,67.6,30.03,South,181,0.0,0.0,89,0.00,,SCT,0.00,VWS V14.01,2013-08-23 01:18:00,
2013-08-22 21:23:00,70.8,67.7,30.03,South,181,0.0,0.0,90,0.00,,SCT,0.00,VWS V14.01,2013-08-23 01:23:00,
2013-08-22 21:28:00,70.6,67.5,30.03,South,181,0.0,0.0,90,0.00,,SCT,0.00,VWS V14.01,2013-08-23 01:28:00,
2013-08-22 21:33:00,70.6,67.5,30.06,South,181,0.0,0.0,90,0.00,,SCT,0.00,VWS V14.01,2013-08-23 01:33:00,
2013-08-22 21:38:00,70.6,67.8,30.06,South,181,0.0,0.0,91,0.00,,SCT,0.00,VWS V14.01,2013-08-23 01:38:00,
2013-08-22 21:43:00,70.4,67.7,30.06,South,181,0.0,0.0,91,0.00,,SCT,0.00,VWS V14.01,2013-08-23 01:43:00,
2013-08-22 21:48:00,70.4,67.7,30.06,South,181,0.0,0.0,91,0.00,,SCT,0.00,VWS V14.01,2013-08-23 01:48:00,
2013-08-22 21:53:00,70.2,67.8,30.06,South,181,0.0,0.0,92,0.00,,SCT,0.00,VWS V14.01,2013-08-23 01:53:00,
2013-08-22 21:58:00,70.2,67.8,30.06,South,181,0.0,0.0,92,0.00,,SCT,0.00,VWS V14.01,2013-08-23 01:58:00,
2013-08-22 22:03:00,70.1,67.6,30.06,South,181,0.0,0.0,92,0.00,,SCT,0.00,VWS V14.01,2013-08-23 02:03:00,
2013-08-22 22:08:00,69.9,67.4,30.06,South,181,0.0,0.0,92,0.00,,SCT,0.00,VWS V14.01,2013-08-23 02:08:00,
2013-08-22 22:13:00,69.7,67.3,30.06,South,181,0.0,0.0,92,0.00,,SCT,0.00,VWS V14.01,2013-08-23 02:13:00,
2013-08-22 22:18:00,69.7,67.6,30.06,South,181,0.0,0.0,93,0.00,,SCT,0.00,VWS V14.01,2013-08-23 02:18:00,
2013-08-22 22:23:00,69.5,67.4,30.06,South,181,0.0,0.0,93,0.00,,SCT,0.00,VWS V14.01,2013-08-23 02:23:00,
2013-08-22 22:28:00,69.5,67.7,30.06,South,181,0.0,0.0,94,0.00,,SCT,0.00,VWS V14.01,2013-08-23 02:28:00,
2013-08-22 22:33:00,69.3,67.5,30.06,South,181,0.0,0.0,94,0.00,,SCT,0.00,VWS V14.01,2013-08-23 02:33:00,
2013-08-22 22:38:00,69.3,67.5,30.06,South,181,0.0,0.0,94,0.00,,SCT,0.00,VWS V14.01,2013-08-23 02:38:00,
2013-08-22 22:43:00,69.3,67.5,30.06,South,181,0.0,0.0,94,0.00,,SCT,0.00,VWS V14.01,2013-08-23 02:43:00,
2013-08-22 22:48:00,69.3,67.8,30.06,South,181,0.0,0.0,95,0.00,,SCT,0.00,VWS V14.01,2013-08-23 02:48:00,
2013-08-22 22:53:00,69.3,67.8,30.06,South,181,0.0,0.0,95,0.00,,SCT,0.00,VWS V14.01,2013-08-23 02:53:00,
2013-08-22 22:58:00,69.3,67.8,30.06,South,181,0.0,0.0,95,0.00,,SCT,0.00,VWS V14.01,2013-08-23 02:58:00,
2013-08-22 23:03:00,69.2,67.7,30.06,South,181,0.0,0.0,95,0.00,,SCT,0.00,VWS V14.01,2013-08-23 03:03:00,
2013-08-22 23:08:00,69.0,67.5,30.06,South,181,0.0,0.0,95,0.00,,SCT,0.00,VWS V14.01,2013-08-23 03:08:00,
2013-08-22 23:13:00,69.0,67.8,30.06,South,181,0.0,0.0,96,0.00,,SCT,0.00,VWS V14.01,2013-08-23 03:13:00,
2013-08-22 23:18:00,68.8,67.6,30.06,South,181,0.0,0.0,96,0.00,,SCT,0.00,VWS V14.01,2013-08-23 03:18:00,
2013-08-22 23:23:00,68.6,67.4,30.06,South,181,0.0,0.0,96,0.00,,SCT,0.00,VWS V14.01,2013-08-23 03:23:00,
2013-08-22 23:28:00,68.6,67.7,30.06,South,181,0.0,0.0,97,0.00,,SCT,0.00,VWS V14.01,2013-08-23 03:28:00,
2013-08-22 23:33:00,68.8,67.9,30.06,South,181,0.0,0.0,97,0.00,,SCT,0.00,VWS V14.01,2013-08-23 03:33:00,
2013-08-22 23:38:00,68.6,67.7,30.06,South,181,0.0,0.0,97,0.00,,SCT,0.00,VWS V14.01,2013-08-23 03:38:00,
2013-08-22 23:43:00,68.6,68.0,30.06,South,181,0.0,0.0,98,0.00,,SCT,0.00,VWS V14.01,2013-08-23 03:43:00,
2013-08-22 23:48:00,68.4,67.9,30.06,South,181,0.0,0.0,98,0.00,,SCT,0.00,VWS V14.01,2013-08-23 03:48:00,
2013-08-22 23:53:00,68.3,67.7,30.06,South,181,0.0,0.0,98,0.00,,SCT,0.00,VWS V14.01,2013-08-23 03:53:00,
2013-08-22 23:58:00,68.3,67.7,30.06,South,181,0.0,0.0,98,0.00,,SCT,0.00,VWS V14.01,2013-08-23 03:58:00,